sensor_id;sensor_type;location;lat;lon;timestamp;pressure;altitude;pressure_sealevel;temperature;humidity
48352;BME280;34163;49.314;6.752;2023-07-16T08:25:02;99742.97;;;8.15;100.00
48352;BME280;34163;49.314;6.752;2023-07-16T08:27:28;99734.91;;;8.20;100.00
48352;BME280;34163;49.314;6.752;2023-07-16T08:29:54;99735.84;;;8.17;100.00
48352;BME280;34163;49.314;6.752;2023-07-16T08:32:19;99732.50;;;8.12;100.00
48352;BME280;34163;49.314;6.752;2023-07-16T08:34:44;99742.47;;;8.04;100.00
48352;BME280;34163;49.314;6.752;2023-07-16T08:37:10;99742.28;;;8.09;100.00
48352;BME280;34163;49.314;6.752;2023-07-16T08:39:35;99742.19;;;8.12;100.00
48352;BME280;34163;49.314;6.752;2023-07-16T08:42:00;99742.38;;;8.06;100.00
48352;BME280;34163;49.314;6.752;2023-07-16T08:44:26;99742.47;;;8.04;100.00
48352;BME280;34163;49.314;6.752;2023-07-16T08:46:52;99738.94;;;8.04;100.00
48352;BME280;34163;49.314;6.752;2023-07-16T08:49:17;99748.66;;;8.03;100.00
48352;BME280;34163;49.314;6.752;2023-07-16T08:51:44;99743.25;;;8.06;100.00
48352;BME280;34163;49.314;6.752;2023-07-16T08:54:11;99745.66;;;8.14;100.00
48352;BME280;34163;49.314;6.752;2023-07-16T08:56:36;99740.38;;;8.14;100.00
48352;BME280;34163;49.314;6.752;2023-07-16T08:59:01;99746.31;;;8.21;100.00
48352;BME280;34163;49.314;6.752;2023-07-16T09:01:27;99751.78;;;8.14;100.00
48352;BME280;34163;49.314;6.752;2023-07-16T09:03:53;99754.53;;;8.11;100.00
48352;BME280;34163;49.314;6.752;2023-07-16T09:06:18;99750.59;;;8.23;100.00
48352;BME280;34163;49.314;6.752;2023-07-16T09:08:43;99751.44;;;8.25;100.00
48352;BME280;34163;49.314;6.752;2023-07-16T09:11:12;99749.75;;;8.23;100.00
48352;BME280;34163;49.314;6.752;2023-07-16T09:13:44;99763.09;;;8.18;100.00
48352;BME280;34163;49.314;6.752;2023-07-16T09:16:09;99753.28;;;8.22;100.00
48352;BME280;34163;49.314;6.752;2023-07-16T09:18:35;99756.56;;;8.30;100.00
48352;BME280;34163;49.314;6.752;2023-07-16T09:21:00;99756.66;;;8.27;100.00
48352;BME280;34163;49.314;6.752;2023-07-16T09:23:36;99746.09;;;8.27;100.00
48352;BME280;34163;49.314;6.752;2023-07-16T09:26:02;99763.53;;;8.31;100.00
48352;BME280;34163;49.314;6.752;2023-07-16T09:28:29;99764.19;;;8.37;100.00
48352;BME280;34163;49.314;6.752;2023-07-16T09:30:55;99762.53;;;8.35;100.00
48352;BME280;34163;49.314;6.752;2023-07-16T09:33:20;99755.38;;;8.39;100.00
48352;BME280;34163;49.314;6.752;2023-07-16T09:35:49;99771.09;;;8.42;100.00
48352;BME280;34163;49.314;6.752;2023-07-16T09:38:15;99765.81;;;8.42;100.00
48352;BME280;34163;49.314;6.752;2023-07-16T09:40:40;99772.06;;;8.39;100.00
48352;BME280;34163;49.314;6.752;2023-07-16T09:43:09;99763.25;;;8.40;100.00
48352;BME280;34163;49.314;6.752;2023-07-16T09:45:35;99766.97;;;8.34;100.00
48352;BME280;34163;49.314;6.752;2023-07-16T09:48:00;99760.06;;;8.30;100.00
48352;BME280;34163;49.314;6.752;2023-07-16T12:47:47;99690.16;;;8.41;100.00
48352;BME280;34163;49.314;6.752;2023-07-16T12:50:12;99701.53;;;8.44;100.00
48352;BME280;34163;49.314;6.752;2023-07-16T12:52:38;99689.81;;;8.51;100.00
48352;BME280;34163;49.314;6.752;2023-07-16T12:55:03;99696.13;;;8.47;100.00
48352;BME280;34163;49.314;6.752;2023-07-16T12:57:28;99693.31;;;8.52;100.00
48352;BME280;34163;49.314;6.752;2023-07-16T12:59:54;99691.56;;;8.52;100.00
48352;BME280;34163;49.314;6.752;2023-07-16T13:02:19;99696.78;;;8.54;100.00
48352;BME280;34163;49.314;6.752;2023-07-16T13:04:45;99695.78;;;8.57;100.00
48352;BME280;34163;49.314;6.752;2023-07-16T13:07:11;99693.16;;;8.57;100.00
48352;BME280;34163;49.314;6.752;2023-07-16T13:09:36;99688.75;;;8.57;100.00
48352;BME280;34163;49.314;6.752;2023-07-16T13:12:01;99695.78;;;8.57;100.00
48352;BME280;34163;49.314;6.752;2023-07-16T13:14:28;99693.75;;;8.65;100.00
48352;BME280;34163;49.314;6.752;2023-07-16T13:16:53;99694.78;;;8.61;100.00
48352;BME280;34163;49.314;6.752;2023-07-16T13:19:21;99694.97;;;8.04;100.00
48352;BME280;34163;49.314;6.752;2023-07-16T13:21:54;99696.16;;;7.40;100.00
48352;BME280;34163;49.314;6.752;2023-07-16T13:24:19;99687.81;;;7.26;100.00
48352;BME280;34163;49.314;6.752;2023-07-16T13:26:45;99688.44;;;7.04;100.00
48352;BME280;34163;49.314;6.752;2023-07-16T13:29:11;99681.06;;;6.86;100.00
48352;BME280;34163;49.314;6.752;2023-07-16T13:31:36;99677.75;;;6.79;100.00
48352;BME280;34163;49.314;6.752;2023-07-16T13:34:01;99679.84;;;6.68;100.00
48352;BME280;34163;49.314;6.752;2023-07-16T13:36:26;99688.78;;;6.62;100.00
48352;BME280;34163;49.314;6.752;2023-07-16T13:38:52;99680.19;;;6.55;100.00
48352;BME280;34163;49.314;6.752;2023-07-16T13:41:17;99677.78;;;6.48;100.00
48352;BME280;34163;49.314;6.752;2023-07-16T13:43:42;99686.59;;;6.47;100.00
48352;BME280;34163;49.314;6.752;2023-07-16T13:46:08;99689.22;;;6.47;100.00
48352;BME280;34163;49.314;6.752;2023-07-16T13:48:33;99678.13;;;6.35;100.00
48352;BME280;34163;49.314;6.752;2023-07-16T13:50:59;99678.13;;;6.35;100.00
48352;BME280;34163;49.314;6.752;2023-07-16T13:53:24;99666.72;;;6.35;100.00
48352;BME280;34163;49.314;6.752;2023-07-16T13:55:49;99678.13;;;6.35;100.00
48352;BME280;34163;49.314;6.752;2023-07-16T13:58:15;99679.09;;;6.31;100.00
48352;BME280;34163;49.314;6.752;2023-07-16T14:00:40;99672.13;;;6.30;100.00
48352;BME280;34163;49.314;6.752;2023-07-16T14:03:05;99674.06;;;6.22;100.00
48352;BME280;34163;49.314;6.752;2023-07-16T14:05:31;99671.19;;;6.31;100.00
48352;BME280;34163;49.314;6.752;2023-07-16T14:07:59;99690.72;;;6.24;100.00
48352;BME280;34163;49.314;6.752;2023-07-16T14:10:25;99679.44;;;6.19;100.00
48352;BME280;34163;49.314;6.752;2023-07-16T14:12:50;99676.91;;;6.16;100.00
48352;BME280;34163;49.314;6.752;2023-07-16T14:15:15;99677.16;;;6.05;100.00
48352;BME280;34163;49.314;6.752;2023-07-16T14:17:40;99681.44;;;6.09;100.00
48352;BME280;34163;49.314;6.752;2023-07-16T14:20:06;99682.38;;;6.07;100.00
48352;BME280;34163;49.314;6.752;2023-07-16T14:22:31;99679.00;;;6.03;100.00
48352;BME280;34163;49.314;6.752;2023-07-16T14:24:57;99671.94;;;6.04;100.00
48352;BME280;34163;49.314;6.752;2023-07-16T14:27:22;99679.09;;;5.98;100.00
48352;BME280;34163;49.314;6.752;2023-07-16T14:29:48;99680.94;;;5.93;100.00
48352;BME280;34163;49.314;6.752;2023-07-16T14:32:13;99684.41;;;5.95;100.00
48352;BME280;34163;49.314;6.752;2023-07-16T14:34:39;99681.78;;;5.97;100.00
48352;BME280;34163;49.314;6.752;2023-07-16T14:37:06;99681.94;;;5.89;100.00
48352;BME280;34163;49.314;6.752;2023-07-16T14:39:32;99685.38;;;5.91;100.00
48352;BME280;34163;49.314;6.752;2023-07-16T14:41:57;99680.22;;;5.87;100.00
48352;BME280;34163;49.314;6.752;2023-07-16T14:44:22;99672.53;;;5.79;100.00
48352;BME280;34163;49.314;6.752;2023-07-16T14:46:47;99669.94;;;5.77;100.00
48352;BME280;34163;49.314;6.752;2023-07-16T14:49:13;99668.31;;;5.73;100.00
48352;BME280;34163;49.314;6.752;2023-07-16T14:51:38;99672.63;;;5.74;100.00
48352;BME280;34163;49.314;6.752;2023-07-16T14:54:05;99671.03;;;5.69;100.00
48352;BME280;34163;49.314;6.752;2023-07-16T14:56:30;99666.56;;;5.72;100.00
48352;BME280;34163;49.314;6.752;2023-07-16T14:58:55;99664.81;;;5.73;100.00
48352;BME280;34163;49.314;6.752;2023-07-16T15:01:21;99666.66;;;5.68;100.00
48352;BME280;34163;49.314;6.752;2023-07-16T15:03:46;99666.19;;;5.88;100.00
48352;BME280;34163;49.314;6.752;2023-07-16T15:06:11;99656.16;;;5.68;100.00
48352;BME280;34163;49.314;6.752;2023-07-16T15:08:36;99661.59;;;5.60;100.00
48352;BME280;34163;49.314;6.752;2023-07-16T15:11:02;99663.34;;;5.61;100.00
48352;BME280;34163;49.314;6.752;2023-07-16T15:13:27;99664.25;;;5.58;100.00
48352;BME280;34163;49.314;6.752;2023-07-16T15:15:56;99664.38;;;5.55;100.00
48352;BME280;34163;49.314;6.752;2023-07-16T15:18:25;99652.03;;;5.57;100.00
48352;BME280;34163;49.314;6.752;2023-07-16T15:20:58;99643.34;;;5.55;100.00
48352;BME280;34163;49.314;6.752;2023-07-16T15:23:27;99643.41;;;5.52;100.00
48352;BME280;34163;49.314;6.752;2023-07-16T15:25:53;99641.69;;;5.51;100.00
48352;BME280;34163;49.314;6.752;2023-07-16T15:28:18;99631.09;;;5.54;100.00
48352;BME280;34163;49.314;6.752;2023-07-16T15:30:44;99631.31;;;5.45;100.00
48352;BME280;34163;49.314;6.752;2023-07-16T15:33:09;99626.13;;;5.42;100.00
48352;BME280;34163;49.314;6.752;2023-07-16T15:35:34;99624.31;;;5.44;100.00
48352;BME280;34163;49.314;6.752;2023-07-16T15:38:01;99621.63;;;5.47;100.00
48352;BME280;34163;49.314;6.752;2023-07-16T15:40:28;99624.28;;;5.45;100.00
48352;BME280;34163;49.314;6.752;2023-07-16T15:42:54;99628.72;;;5.43;100.00
48352;BME280;34163;49.314;6.752;2023-07-16T15:45:19;99630.34;;;5.49;100.00
48352;BME280;34163;49.314;6.752;2023-07-16T15:47:45;99624.31;;;5.44;100.00
48352;BME280;34163;49.314;6.752;2023-07-16T15:50:10;99619.97;;;5.43;100.00
48352;BME280;34163;49.314;6.752;2023-07-16T15:52:36;99623.47;;;5.43;100.00
48352;BME280;34163;49.314;6.752;2023-07-16T15:55:01;99628.97;;;5.33;100.00
48352;BME280;34163;49.314;6.752;2023-07-16T15:57:26;99626.25;;;5.36;100.00
48352;BME280;34163;49.314;6.752;2023-07-16T15:59:52;99615.75;;;5.36;100.00
48352;BME280;34163;49.314;6.752;2023-07-16T16:02:17;99625.28;;;5.41;100.00
48352;BME280;34163;49.314;6.752;2023-07-16T16:04:42;99620.13;;;5.37;100.00
48352;BME280;34163;49.314;6.752;2023-07-16T16:07:10;99622.81;;;5.34;100.00
48352;BME280;34163;49.314;6.752;2023-07-16T16:09:36;99617.91;;;5.56;100.00
48352;BME280;34163;49.314;6.752;2023-07-16T16:12:01;99622.88;;;6.03;100.00
48352;BME280;34163;49.314;6.752;2023-07-16T16:14:28;99629.97;;;6.32;100.00
48352;BME280;34163;49.314;6.752;2023-07-16T16:16:53;99626.84;;;6.49;100.00
48352;BME280;34163;49.314;6.752;2023-07-16T16:19:22;99637.94;;;6.60;100.00
48352;BME280;34163;49.314;6.752;2023-07-16T16:21:48;99633.25;;;6.70;100.00
48352;BME280;34163;49.314;6.752;2023-07-16T16:24:13;99636.47;;;6.81;100.00
48352;BME280;34163;49.314;6.752;2023-07-16T16:26:38;99627.50;;;6.87;100.00
48352;BME280;34163;49.314;6.752;2023-07-16T16:29:03;99627.41;;;6.90;100.00
48352;BME280;34163;49.314;6.752;2023-07-16T16:31:29;99622.81;;;6.97;100.00
48352;BME280;34163;49.314;6.752;2023-07-16T16:33:54;99627.94;;;7.01;100.00
48352;BME280;34163;49.314;6.752;2023-07-16T16:36:19;99626.94;;;7.05;100.00
48352;BME280;34163;49.314;6.752;2023-07-16T16:38:44;99630.28;;;7.11;100.00
48352;BME280;34163;49.314;6.752;2023-07-16T16:41:11;99628.47;;;7.13;100.00
48352;BME280;34163;49.314;6.752;2023-07-16T16:43:36;99623.91;;;7.18;100.00
48352;BME280;34163;49.314;6.752;2023-07-16T16:46:02;99627.47;;;7.17;100.00
48352;BME280;34163;49.314;6.752;2023-07-16T16:48:28;99635.19;;;7.23;100.00
48352;BME280;34163;49.314;6.752;2023-07-16T16:50:55;99640.38;;;7.26;100.00
48352;BME280;34163;49.314;6.752;2023-07-16T16:53:20;99640.16;;;7.32;100.00
48352;BME280;34163;49.314;6.752;2023-07-16T16:55:45;99637.56;;;7.31;100.00
48352;BME280;34163;49.314;6.752;2023-07-16T16:58:11;99634.13;;;7.28;100.00
48352;BME280;34163;49.314;6.752;2023-07-16T17:00:36;99642.78;;;7.32;100.00
48352;BME280;34163;49.314;6.752;2023-07-16T17:03:01;99640.09;;;7.34;100.00
48352;BME280;34163;49.314;6.752;2023-07-16T17:05:26;99639.19;;;7.35;100.00
48352;BME280;34163;49.314;6.752;2023-07-16T17:07:52;99639.84;;;7.41;100.00
48352;BME280;34163;49.314;6.752;2023-07-16T17:10:17;99635.38;;;7.43;100.00
48352;BME280;34163;49.314;6.752;2023-07-16T17:12:42;99639.75;;;7.44;100.00
48352;BME280;34163;49.314;6.752;2023-07-16T17:15:08;99636.22;;;7.45;100.00
48352;BME280;34163;49.314;6.752;2023-07-16T17:17:34;99632.56;;;7.50;100.00
48352;BME280;34163;49.314;6.752;2023-07-16T17:19:59;99633.38;;;7.52;100.00
48352;BME280;34163;49.314;6.752;2023-07-16T17:22:25;99634.38;;;7.48;100.00
48352;BME280;34163;49.314;6.752;2023-07-16T17:24:51;99634.28;;;7.51;100.00
48352;BME280;34163;49.314;6.752;2023-07-16T17:27:17;99641.31;;;7.52;100.00
48352;BME280;34163;49.314;6.752;2023-07-16T17:29:45;99643.78;;;7.56;100.00
48352;BME280;34163;49.314;6.752;2023-07-16T17:32:11;99651.75;;;7.55;100.00
48352;BME280;34163;49.314;6.752;2023-07-16T17:34:36;99647.22;;;7.58;100.00
48352;BME280;34163;49.314;6.752;2023-07-16T17:37:04;99641.97;;;7.58;100.00
48352;BME280;34163;49.314;6.752;2023-07-16T17:39:30;99650.56;;;7.63;100.00
48352;BME280;34163;49.314;6.752;2023-07-16T17:41:55;99644.56;;;9.08;100.00
48352;BME280;34163;49.314;6.752;2023-07-16T17:44:20;99638.97;;;9.38;100.00
48352;BME280;34163;49.314;6.752;2023-07-16T17:46:45;99637.00;;;8.26;100.00
48352;BME280;34163;49.314;6.752;2023-07-16T17:49:11;99644.94;;;8.01;100.00
48352;BME280;34163;49.314;6.752;2023-07-16T17:51:36;99639.81;;;7.96;100.00
48352;BME280;34163;49.314;6.752;2023-07-16T17:54:02;99640.88;;;7.91;100.00
48352;BME280;34163;49.314;6.752;2023-07-16T17:56:27;99646.16;;;7.91;100.00
48352;BME280;34163;49.314;6.752;2023-07-16T17:58:52;99644.44;;;7.90;100.00
48352;BME280;34163;49.314;6.752;2023-07-16T18:01:18;99640.06;;;7.89;100.00
48352;BME280;34163;49.314;6.752;2023-07-16T18:03:43;99632.25;;;7.86;100.00
48352;BME280;34163;49.314;6.752;2023-07-16T18:06:08;99641.91;;;7.87;100.00
48352;BME280;34163;49.314;6.752;2023-07-16T18:08:34;99642.56;;;7.93;100.00
48352;BME280;34163;49.314;6.752;2023-07-16T18:10:59;99645.41;;;7.87;100.00
48352;BME280;34163;49.314;6.752;2023-07-16T18:13:25;99644.34;;;7.91;100.00
48352;BME280;34163;49.314;6.752;2023-07-16T18:15:51;99640.06;;;7.89;100.00
48352;BME280;34163;49.314;6.752;2023-07-16T18:18:16;99643.50;;;7.91;100.00
48352;BME280;34163;49.314;6.752;2023-07-16T18:20:42;99652.22;;;7.93;100.00
48352;BME280;34163;49.314;6.752;2023-07-16T18:23:07;99649.59;;;7.93;100.00
48352;BME280;34163;49.314;6.752;2023-07-16T18:25:32;99640.72;;;7.95;100.00
48352;BME280;34163;49.314;6.752;2023-07-16T18:27:58;99644.25;;;7.94;100.00
48352;BME280;34163;49.314;6.752;2023-07-16T18:30:23;99648.56;;;7.97;100.00
48352;BME280;34163;49.314;6.752;2023-07-16T18:32:48;99644.25;;;7.94;100.00
48352;BME280;34163;49.314;6.752;2023-07-16T18:35:13;99649.59;;;7.93;100.00
48352;BME280;34163;49.314;6.752;2023-07-16T18:37:39;99651.22;;;7.97;100.00
48352;BME280;34163;49.314;6.752;2023-07-16T18:40:04;99645.03;;;7.98;100.00
48352;BME280;34163;49.314;6.752;2023-07-16T18:42:30;99649.31;;;8.00;100.00
48352;BME280;34163;49.314;6.752;2023-07-16T18:44:56;99654.66;;;7.99;100.00
48352;BME280;34163;49.314;6.752;2023-07-16T18:47:24;99657.13;;;8.04;100.00
48352;BME280;34163;49.314;6.752;2023-07-16T18:49:50;99656.34;;;8.02;100.00
48352;BME280;34163;49.314;6.752;2023-07-16T18:52:16;99661.19;;;8.14;100.00
48352;BME280;34163;49.314;6.752;2023-07-16T18:54:42;99665.59;;;8.13;100.00
48352;BME280;34163;49.314;6.752;2023-07-16T18:57:07;99659.66;;;8.07;100.00
48352;BME280;34163;49.314;6.752;2023-07-16T18:59:34;99661.00;;;8.20;100.00
48352;BME280;34163;49.314;6.752;2023-07-16T19:01:59;99663.84;;;8.14;100.00
48352;BME280;34163;49.314;6.752;2023-07-16T19:04:25;99666.38;;;8.17;100.00
48352;BME280;34163;49.314;6.752;2023-07-16T19:06:50;99655.75;;;8.18;100.00
48352;BME280;34163;49.314;6.752;2023-07-16T19:09:16;99662.84;;;8.16;100.00
48352;BME280;34163;49.314;6.752;2023-07-16T19:11:43;99658.41;;;8.18;100.00
48352;BME280;34163;49.314;6.752;2023-07-16T19:14:08;99659.19;;;8.21;100.00
48352;BME280;34163;49.314;6.752;2023-07-16T19:16:33;99667.19;;;8.19;100.00
48352;BME280;34163;49.314;6.752;2023-07-16T19:18:59;99666.31;;;8.18;100.00
48352;BME280;34163;49.314;6.752;2023-07-16T19:21:24;99667.13;;;8.21;100.00
48352;BME280;34163;49.314;6.752;2023-07-16T19:23:50;99666.13;;;8.23;100.00
48352;BME280;34163;49.314;6.752;2023-07-16T19:26:15;99669.75;;;8.21;100.00
48352;BME280;34163;49.314;6.752;2023-07-16T19:28:40;99680.41;;;8.17;100.00
48352;BME280;34163;49.314;6.752;2023-07-16T19:31:05;99685.53;;;8.22;100.00
48352;BME280;34163;49.314;6.752;2023-07-16T19:33:31;99687.31;;;8.22;100.00
48352;BME280;34163;49.314;6.752;2023-07-16T19:35:57;99684.56;;;8.25;100.00
48352;BME280;34163;49.314;6.752;2023-07-16T19:38:22;99689.03;;;8.23;100.00
48352;BME280;34163;49.314;6.752;2023-07-16T19:40:47;99689.84;;;8.25;100.00
48352;BME280;34163;49.314;6.752;2023-07-16T19:43:14;99688.06;;;8.25;100.00
48352;BME280;34163;49.314;6.752;2023-07-16T19:45:39;99695.94;;;8.27;100.00
48352;BME280;34163;49.314;6.752;2023-07-16T19:48:04;99696.78;;;8.27;100.00
48352;BME280;34163;49.314;6.752;2023-07-16T19:50:32;99709.16;;;8.27;100.00
48352;BME280;34163;49.314;6.752;2023-07-16T19:52:58;99705.56;;;8.28;100.00
48352;BME280;34163;49.314;6.752;2023-07-16T19:55:23;99700.28;;;8.28;100.00
48352;BME280;34163;49.314;6.752;2023-07-16T19:57:48;99700.28;;;8.28;100.00
48352;BME280;34163;49.314;6.752;2023-07-16T20:00:13;99701.16;;;8.28;100.00
48352;BME280;34163;49.314;6.752;2023-07-16T20:02:41;99709.72;;;8.35;100.00
48352;BME280;34163;49.314;6.752;2023-07-16T20:05:06;99712.47;;;8.32;100.00
48352;BME280;34163;49.314;6.752;2023-07-16T20:07:35;99714.22;;;8.33;100.00
48352;BME280;34163;49.314;6.752;2023-07-16T20:10:03;99713.38;;;8.31;100.00
48352;BME280;34163;49.314;6.752;2023-07-16T20:12:29;99710.84;;;8.28;100.00
48352;BME280;34163;49.314;6.752;2023-07-16T20:14:54;99706.44;;;8.28;100.00
48352;BME280;34163;49.314;6.752;2023-07-16T20:17:20;99705.56;;;8.28;100.00
48352;BME280;34163;49.314;6.752;2023-07-16T20:19:45;99707.19;;;8.32;100.00
48352;BME280;34163;49.314;6.752;2023-07-16T20:22:10;99713.38;;;8.31;100.00
48352;BME280;34163;49.314;6.752;2023-07-16T20:24:35;99716.81;;;8.34;100.00
48352;BME280;34163;49.314;6.752;2023-07-16T20:27:01;99715.22;;;8.29;100.00
48352;BME280;34163;49.314;6.752;2023-07-16T20:29:26;99713.34;;;8.32;100.00
48352;BME280;34163;49.314;6.752;2023-07-16T20:31:51;99717.75;;;8.32;100.00
48352;BME280;34163;49.314;6.752;2023-07-16T20:34:16;99721.31;;;8.31;100.00
48352;BME280;34163;49.314;6.752;2023-07-16T20:36:42;99726.31;;;8.39;100.00
48352;BME280;34163;49.314;6.752;2023-07-16T20:39:08;99722.09;;;8.34;100.00
48352;BME280;34163;49.314;6.752;2023-07-16T20:41:33;99730.75;;;8.38;100.00
48352;BME280;34163;49.314;6.752;2023-07-16T20:43:58;99736.88;;;8.39;100.00
48352;BME280;34163;49.314;6.752;2023-07-16T20:46:24;99735.09;;;8.39;100.00
48352;BME280;34163;49.314;6.752;2023-07-16T20:48:50;99735.09;;;8.39;100.00
48352;BME280;34163;49.314;6.752;2023-07-16T20:51:15;99741.13;;;8.44;100.00
48352;BME280;34163;49.314;6.752;2023-07-16T20:53:40;99730.69;;;8.40;100.00
48352;BME280;34163;49.314;6.752;2023-07-16T20:56:06;99737.75;;;8.39;100.00
48352;BME280;34163;49.314;6.752;2023-07-16T20:58:31;99732.50;;;8.37;100.00
48352;BME280;34163;49.314;6.752;2023-07-16T21:00:56;99732.41;;;8.41;100.00
48352;BME280;34163;49.314;6.752;2023-07-16T21:03:22;99742.91;;;8.42;100.00
48352;BME280;34163;49.314;6.752;2023-07-16T21:05:47;99737.69;;;8.41;100.00
48352;BME280;34163;49.314;6.752;2023-07-16T21:08:12;99739.56;;;8.37;100.00
48352;BME280;34163;49.314;6.752;2023-07-16T21:10:38;99729.81;;;8.39;100.00
48352;BME280;34163;49.314;6.752;2023-07-16T21:13:03;99733.28;;;8.41;100.00
48352;BME280;34163;49.314;6.752;2023-07-16T21:15:29;99742.06;;;8.42;100.00
48352;BME280;34163;49.314;6.752;2023-07-16T21:17:57;99740.38;;;8.39;100.00
48352;BME280;34163;49.314;6.752;2023-07-16T21:20:25;99738.56;;;8.41;100.00
48352;BME280;34163;49.314;6.752;2023-07-16T21:22:50;99736.75;;;8.43;100.00
48352;BME280;34163;49.314;6.752;2023-07-16T21:25:15;99736.94;;;8.37;100.00
48352;BME280;34163;49.314;6.752;2023-07-16T21:27:46;99737.00;;;8.35;100.00
48352;BME280;34163;49.314;6.752;2023-07-16T21:30:13;99737.69;;;8.41;100.00
48352;BME280;34163;49.314;6.752;2023-07-16T21:32:38;99740.28;;;8.42;100.00
48352;BME280;34163;49.314;6.752;2023-07-16T21:35:04;99740.38;;;8.39;100.00
48352;BME280;34163;49.314;6.752;2023-07-16T21:37:29;99740.28;;;8.42;100.00
48352;BME280;34163;49.314;6.752;2023-07-16T21:39:55;99739.41;;;8.42;100.00
48352;BME280;34163;49.314;6.752;2023-07-16T21:42:20;99740.28;;;8.42;100.00
48352;BME280;34163;49.314;6.752;2023-07-16T21:44:46;99741.09;;;8.46;100.00
48352;BME280;34163;49.314;6.752;2023-07-16T21:47:11;99745.53;;;8.44;100.00
48352;BME280;34163;49.314;6.752;2023-07-16T21:49:36;99741.16;;;8.43;100.00
48352;BME280;34163;49.314;6.752;2023-07-16T21:52:02;99748.94;;;8.47;100.00
48352;BME280;34163;49.314;6.752;2023-07-16T21:54:32;99749.06;;;8.43;100.00
48352;BME280;34163;49.314;6.752;2023-07-16T21:56:57;99752.59;;;8.43;100.00
48352;BME280;34163;49.314;6.752;2023-07-16T21:59:23;99754.34;;;8.44;100.00
48352;BME280;34163;49.314;6.752;2023-07-16T22:01:48;99755.19;;;8.45;100.00
48352;BME280;34163;49.314;6.752;2023-07-16T22:04:13;99763.00;;;8.48;100.00
48352;BME280;34163;49.314;6.752;2023-07-16T22:06:39;99760.31;;;8.49;100.00
48352;BME280;34163;49.314;6.752;2023-07-16T22:09:04;99760.38;;;8.48;100.00
48352;BME280;34163;49.314;6.752;2023-07-16T22:11:30;99756.97;;;8.44;100.00
48352;BME280;34163;49.314;6.752;2023-07-16T22:13:56;99759.50;;;8.47;100.00
48352;BME280;34163;49.314;6.752;2023-07-16T22:16:21;99758.69;;;8.45;100.00
48352;BME280;34163;49.314;6.752;2023-07-16T22:18:47;99756.00;;;8.47;100.00
48352;BME280;34163;49.314;6.752;2023-07-16T22:21:12;99759.63;;;8.44;100.00
48352;BME280;34163;49.314;6.752;2023-07-16T22:23:38;99762.16;;;8.47;100.00
48352;BME280;34163;49.314;6.752;2023-07-16T22:26:06;99763.13;;;8.45;100.00
48352;BME280;34163;49.314;6.752;2023-07-16T22:28:31;99769.16;;;8.48;100.00
48352;BME280;34163;49.314;6.752;2023-07-16T22:30:57;99762.16;;;8.47;100.00
48352;BME280;34163;49.314;6.752;2023-07-16T22:33:22;99762.16;;;8.47;100.00
48352;BME280;34163;49.314;6.752;2023-07-16T22:35:47;99759.50;;;8.47;100.00
48352;BME280;34163;49.314;6.752;2023-07-16T22:38:12;99760.38;;;8.48;100.00
48352;BME280;34163;49.314;6.752;2023-07-16T22:40:38;99759.50;;;8.47;100.00
48352;BME280;34163;49.314;6.752;2023-07-16T22:43:03;99754.00;;;8.53;100.00
48352;BME280;34163;49.314;6.752;2023-07-16T22:45:28;99760.22;;;8.52;100.00
48352;BME280;34163;49.314;6.752;2023-07-16T22:47:55;99768.25;;;8.49;100.00
48352;BME280;34163;49.314;6.752;2023-07-16T22:50:20;99762.84;;;8.52;100.00
48352;BME280;34163;49.314;6.752;2023-07-16T22:52:46;99758.53;;;8.50;100.00
48352;BME280;34163;49.314;6.752;2023-07-16T22:55:11;99764.69;;;8.50;100.00
48352;BME280;34163;49.314;6.752;2023-07-16T22:57:36;99768.25;;;8.49;100.00
48352;BME280;34163;49.314;6.752;2023-07-16T23:00:02;99769.00;;;8.53;100.00
48352;BME280;34163;49.314;6.752;2023-07-16T23:02:30;99763.66;;;8.54;100.00
48352;BME280;34163;49.314;6.752;2023-07-16T23:04:55;99761.88;;;8.55;100.00
48352;BME280;34163;49.314;6.752;2023-07-16T23:07:20;99769.97;;;8.50;100.00
48352;BME280;34163;49.314;6.752;2023-07-16T23:09:46;99767.34;;;8.50;100.00
48352;BME280;34163;49.314;6.752;2023-07-16T23:12:11;99767.44;;;8.47;100.00
48352;BME280;34163;49.314;6.752;2023-07-16T23:14:36;99763.16;;;8.43;100.00
48352;BME280;34163;49.314;6.752;2023-07-16T23:17:05;99761.16;;;8.50;100.00
48352;BME280;34163;49.314;6.752;2023-07-16T23:19:30;99760.22;;;8.52;100.00
48352;BME280;34163;49.314;6.752;2023-07-16T23:21:55;99757.63;;;8.51;100.00
48352;BME280;34163;49.314;6.752;2023-07-16T23:24:21;99756.88;;;8.47;100.00
48352;BME280;34163;49.314;6.752;2023-07-16T23:26:46;99765.50;;;8.52;100.00
